sensor_id;sensor_type;location;lat;lon;timestamp;P1;durP1;ratioP1;P2;durP2;ratioP2
52734;SDS011;38631;47.572;10.704;2024-02-04T00:00:28;6.75;;;3.97;;
52734;SDS011;38631;47.572;10.704;2024-02-04T00:02:53;10.00;;;3.88;;
52734;SDS011;38631;47.572;10.704;2024-02-04T00:05:19;9.90;;;4.40;;
52734;SDS011;38631;47.572;10.704;2024-02-04T00:07:44;8.20;;;4.28;;
52734;SDS011;38631;47.572;10.704;2024-02-04T00:10:10;8.93;;;4.50;;
52734;SDS011;38631;47.572;10.704;2024-02-04T00:12:36;11.50;;;4.80;;
52734;SDS011;38631;47.572;10.704;2024-02-04T00:15:02;11.70;;;5.32;;
52734;SDS011;38631;47.572;10.704;2024-02-04T00:17:29;11.18;;;4.78;;
52734;SDS011;38631;47.572;10.704;2024-02-04T00:19:56;8.52;;;4.57;;
52734;SDS011;38631;47.572;10.704;2024-02-04T00:22:22;7.45;;;4.10;;
52734;SDS011;38631;47.572;10.704;2024-02-04T00:24:47;9.07;;;4.00;;
52734;SDS011;38631;47.572;10.704;2024-02-04T00:27:13;8.90;;;3.72;;
52734;SDS011;38631;47.572;10.704;2024-02-04T00:29:38;7.70;;;3.75;;
52734;SDS011;38631;47.572;10.704;2024-02-04T00:32:04;7.63;;;3.05;;
52734;SDS011;38631;47.572;10.704;2024-02-04T00:34:29;6.97;;;3.13;;
52734;SDS011;38631;47.572;10.704;2024-02-04T00:36:55;8.90;;;3.65;;
52734;SDS011;38631;47.572;10.704;2024-02-04T00:39:20;6.85;;;2.92;;
52734;SDS011;38631;47.572;10.704;2024-02-04T00:41:45;4.85;;;3.05;;
52734;SDS011;38631;47.572;10.704;2024-02-04T00:44:11;7.97;;;4.43;;
52734;SDS011;38631;47.572;10.704;2024-02-04T00:46:36;8.98;;;4.72;;
52734;SDS011;38631;47.572;10.704;2024-02-04T00:49:01;8.68;;;3.40;;
52734;SDS011;38631;47.572;10.704;2024-02-04T00:51:27;6.50;;;2.88;;
52734;SDS011;38631;47.572;10.704;2024-02-04T00:53:53;6.55;;;2.63;;
52734;SDS011;38631;47.572;10.704;2024-02-04T00:56:18;12.00;;;5.03;;
52734;SDS011;38631;47.572;10.704;2024-02-04T00:58:43;6.85;;;3.22;;
52734;SDS011;38631;47.572;10.704;2024-02-04T01:01:09;7.57;;;3.70;;
52734;SDS011;38631;47.572;10.704;2024-02-04T01:03:35;6.25;;;3.25;;
52734;SDS011;38631;47.572;10.704;2024-02-04T01:06:00;5.22;;;3.15;;
52734;SDS011;38631;47.572;10.704;2024-02-04T01:08:25;6.65;;;3.05;;
52734;SDS011;38631;47.572;10.704;2024-02-04T01:10:51;4.05;;;1.95;;
52734;SDS011;38631;47.572;10.704;2024-02-04T01:13:17;6.95;;;2.42;;
52734;SDS011;38631;47.572;10.704;2024-02-04T01:15:42;5.97;;;2.10;;
52734;SDS011;38631;47.572;10.704;2024-02-04T01:18:08;4.70;;;2.20;;
52734;SDS011;38631;47.572;10.704;2024-02-04T01:20:34;8.35;;;2.40;;
52734;SDS011;38631;47.572;10.704;2024-02-04T01:22:59;4.75;;;2.28;;
52734;SDS011;38631;47.572;10.704;2024-02-04T01:25:25;5.57;;;2.30;;
52734;SDS011;38631;47.572;10.704;2024-02-04T01:27:50;10.10;;;3.85;;
52734;SDS011;38631;47.572;10.704;2024-02-04T01:30:15;4.60;;;1.90;;
52734;SDS011;38631;47.572;10.704;2024-02-04T01:32:41;5.95;;;2.20;;
52734;SDS011;38631;47.572;10.704;2024-02-04T01:35:06;7.97;;;2.35;;
52734;SDS011;38631;47.572;10.704;2024-02-04T01:37:32;2.97;;;1.52;;
52734;SDS011;38631;47.572;10.704;2024-02-04T01:39:58;3.38;;;1.70;;
52734;SDS011;38631;47.572;10.704;2024-02-04T01:42:23;4.15;;;1.88;;
52734;SDS011;38631;47.572;10.704;2024-02-04T01:44:49;4.78;;;1.27;;
52734;SDS011;38631;47.572;10.704;2024-02-04T01:47:14;10.27;;;2.38;;
52734;SDS011;38631;47.572;10.704;2024-02-04T01:49:40;6.82;;;1.95;;
52734;SDS011;38631;47.572;10.704;2024-02-04T01:52:05;3.63;;;1.58;;
52734;SDS011;38631;47.572;10.704;2024-02-04T01:54:32;4.07;;;1.80;;
52734;SDS011;38631;47.572;10.704;2024-02-04T01:56:59;4.72;;;1.95;;
52734;SDS011;38631;47.572;10.704;2024-02-04T01:59:27;3.97;;;1.77;;
52734;SDS011;38631;47.572;10.704;2024-02-04T02:01:56;6.35;;;3.15;;
52734;SDS011;38631;47.572;10.704;2024-02-04T02:04:24;4.85;;;2.28;;
52734;SDS011;38631;47.572;10.704;2024-02-04T02:06:50;5.72;;;2.13;;
52734;SDS011;38631;47.572;10.704;2024-02-04T02:09:15;6.25;;;2.10;;
52734;SDS011;38631;47.572;10.704;2024-02-04T02:11:41;5.40;;;2.33;;
52734;SDS011;38631;47.572;10.704;2024-02-04T02:14:16;4.05;;;1.67;;
52734;SDS011;38631;47.572;10.704;2024-02-04T02:16:44;7.13;;;1.95;;
52734;SDS011;38631;47.572;10.704;2024-02-04T02:19:38;7.93;;;2.90;;
52734;SDS011;38631;47.572;10.704;2024-02-04T02:22:24;4.57;;;2.00;;
52734;SDS011;38631;47.572;10.704;2024-02-04T02:24:57;6.85;;;2.03;;
52734;SDS011;38631;47.572;10.704;2024-02-04T02:27:24;3.20;;;1.80;;
52734;SDS011;38631;47.572;10.704;2024-02-04T02:29:49;4.60;;;2.13;;
52734;SDS011;38631;47.572;10.704;2024-02-04T02:32:15;6.57;;;3.00;;
52734;SDS011;38631;47.572;10.704;2024-02-04T02:34:41;6.82;;;2.55;;
52734;SDS011;38631;47.572;10.704;2024-02-04T02:39:40;4.20;;;1.90;;
52734;SDS011;38631;47.572;10.704;2024-02-04T02:42:12;7.35;;;1.92;;
52734;SDS011;38631;47.572;10.704;2024-02-04T02:44:39;6.90;;;1.70;;
52734;SDS011;38631;47.572;10.704;2024-02-04T02:47:05;6.07;;;1.92;;
52734;SDS011;38631;47.572;10.704;2024-02-04T02:49:32;4.95;;;2.10;;
52734;SDS011;38631;47.572;10.704;2024-02-04T02:51:58;6.72;;;3.20;;
52734;SDS011;38631;47.572;10.704;2024-02-04T02:54:23;6.25;;;2.67;;
52734;SDS011;38631;47.572;10.704;2024-02-04T02:56:48;5.00;;;2.63;;
52734;SDS011;38631;47.572;10.704;2024-02-04T02:59:14;7.32;;;2.17;;
52734;SDS011;38631;47.572;10.704;2024-02-04T03:01:39;5.03;;;2.38;;
52734;SDS011;38631;47.572;10.704;2024-02-04T03:04:05;9.25;;;2.03;;
52734;SDS011;38631;47.572;10.704;2024-02-04T03:06:31;5.55;;;1.83;;
52734;SDS011;38631;47.572;10.704;2024-02-04T03:08:56;6.75;;;1.63;;
52734;SDS011;38631;47.572;10.704;2024-02-04T03:11:21;7.38;;;2.10;;
52734;SDS011;38631;47.572;10.704;2024-02-04T03:13:47;6.75;;;1.88;;
52734;SDS011;38631;47.572;10.704;2024-02-04T03:16:12;4.00;;;1.77;;
52734;SDS011;38631;47.572;10.704;2024-02-04T03:18:39;5.55;;;1.67;;
52734;SDS011;38631;47.572;10.704;2024-02-04T03:21:11;4.65;;;1.52;;
52734;SDS011;38631;47.572;10.704;2024-02-04T03:23:40;3.58;;;1.40;;
52734;SDS011;38631;47.572;10.704;2024-02-04T03:26:07;5.43;;;1.92;;
52734;SDS011;38631;47.572;10.704;2024-02-04T03:28:32;5.65;;;2.05;;
52734;SDS011;38631;47.572;10.704;2024-02-04T03:30:58;5.15;;;1.50;;
52734;SDS011;38631;47.572;10.704;2024-02-04T03:33:23;7.38;;;1.88;;
52734;SDS011;38631;47.572;10.704;2024-02-04T03:35:48;4.60;;;1.30;;
52734;SDS011;38631;47.572;10.704;2024-02-04T03:38:14;4.95;;;1.92;;
52734;SDS011;38631;47.572;10.704;2024-02-04T03:40:39;6.72;;;2.20;;
52734;SDS011;38631;47.572;10.704;2024-02-04T03:43:07;5.53;;;1.88;;
52734;SDS011;38631;47.572;10.704;2024-02-04T03:45:35;4.32;;;1.67;;
52734;SDS011;38631;47.572;10.704;2024-02-04T03:48:01;5.55;;;1.70;;
52734;SDS011;38631;47.572;10.704;2024-02-04T03:50:27;7.57;;;1.92;;
52734;SDS011;38631;47.572;10.704;2024-02-04T03:52:52;7.07;;;2.30;;
52734;SDS011;38631;47.572;10.704;2024-02-04T03:55:18;6.53;;;3.50;;
52734;SDS011;38631;47.572;10.704;2024-02-04T03:57:44;7.22;;;3.45;;
52734;SDS011;38631;47.572;10.704;2024-02-04T04:00:09;15.30;;;5.95;;
52734;SDS011;38631;47.572;10.704;2024-02-04T04:02:35;10.43;;;4.45;;
52734;SDS011;38631;47.572;10.704;2024-02-04T04:05:00;13.27;;;4.45;;
52734;SDS011;38631;47.572;10.704;2024-02-04T04:07:26;13.68;;;5.10;;
52734;SDS011;38631;47.572;10.704;2024-02-04T04:09:51;8.90;;;3.13;;
52734;SDS011;38631;47.572;10.704;2024-02-04T04:12:16;5.68;;;2.95;;
52734;SDS011;38631;47.572;10.704;2024-02-04T04:14:42;9.95;;;3.30;;
52734;SDS011;38631;47.572;10.704;2024-02-04T04:17:07;7.70;;;2.80;;
52734;SDS011;38631;47.572;10.704;2024-02-04T04:19:33;10.73;;;3.25;;
52734;SDS011;38631;47.572;10.704;2024-02-04T04:22:00;7.80;;;3.20;;
52734;SDS011;38631;47.572;10.704;2024-02-04T04:24:27;15.15;;;2.50;;
52734;SDS011;38631;47.572;10.704;2024-02-04T04:26:52;7.07;;;2.28;;
52734;SDS011;38631;47.572;10.704;2024-02-04T04:29:17;6.93;;;3.08;;
52734;SDS011;38631;47.572;10.704;2024-02-04T04:31:43;8.07;;;1.88;;
52734;SDS011;38631;47.572;10.704;2024-02-04T04:34:08;12.55;;;1.90;;
52734;SDS011;38631;47.572;10.704;2024-02-04T04:36:33;12.18;;;3.13;;
52734;SDS011;38631;47.572;10.704;2024-02-04T04:38:59;11.65;;;2.55;;
52734;SDS011;38631;47.572;10.704;2024-02-04T04:41:25;9.30;;;2.22;;
52734;SDS011;38631;47.572;10.704;2024-02-04T04:43:50;8.68;;;2.05;;
52734;SDS011;38631;47.572;10.704;2024-02-04T04:46:16;9.23;;;1.73;;
52734;SDS011;38631;47.572;10.704;2024-02-04T04:48:41;14.52;;;2.60;;
52734;SDS011;38631;47.572;10.704;2024-02-04T04:51:10;7.13;;;2.10;;
52734;SDS011;38631;47.572;10.704;2024-02-04T04:53:36;9.60;;;2.15;;
52734;SDS011;38631;47.572;10.704;2024-02-04T04:56:02;10.55;;;2.92;;
52734;SDS011;38631;47.572;10.704;2024-02-04T04:58:30;7.53;;;2.30;;
52734;SDS011;38631;47.572;10.704;2024-02-04T05:00:56;7.88;;;2.38;;
52734;SDS011;38631;47.572;10.704;2024-02-04T05:03:21;10.32;;;3.83;;
52734;SDS011;38631;47.572;10.704;2024-02-04T05:05:47;11.07;;;2.28;;
52734;SDS011;38631;47.572;10.704;2024-02-04T05:08:15;9.13;;;1.90;;
52734;SDS011;38631;47.572;10.704;2024-02-04T05:10:41;13.80;;;2.47;;
52734;SDS011;38631;47.572;10.704;2024-02-04T05:16:10;15.27;;;2.45;;
52734;SDS011;38631;47.572;10.704;2024-02-04T05:18:37;9.93;;;2.63;;
52734;SDS011;38631;47.572;10.704;2024-02-04T05:21:02;14.07;;;2.90;;
52734;SDS011;38631;47.572;10.704;2024-02-04T05:23:28;19.45;;;3.67;;
52734;SDS011;38631;47.572;10.704;2024-02-04T05:25:54;11.35;;;3.75;;
52734;SDS011;38631;47.572;10.704;2024-02-04T05:28:19;11.95;;;2.80;;
52734;SDS011;38631;47.572;10.704;2024-02-04T05:30:44;14.85;;;2.72;;
52734;SDS011;38631;47.572;10.704;2024-02-04T05:33:13;13.32;;;2.78;;
52734;SDS011;38631;47.572;10.704;2024-02-04T05:35:38;7.88;;;2.25;;
52734;SDS011;38631;47.572;10.704;2024-02-04T05:38:06;13.40;;;2.67;;
52734;SDS011;38631;47.572;10.704;2024-02-04T05:40:31;16.27;;;2.88;;
52734;SDS011;38631;47.572;10.704;2024-02-04T05:42:57;11.57;;;2.50;;
52734;SDS011;38631;47.572;10.704;2024-02-04T05:45:22;11.95;;;3.00;;
52734;SDS011;38631;47.572;10.704;2024-02-04T05:47:48;10.82;;;2.53;;
52734;SDS011;38631;47.572;10.704;2024-02-04T05:50:13;14.07;;;2.72;;
52734;SDS011;38631;47.572;10.704;2024-02-04T05:52:39;12.93;;;3.42;;
52734;SDS011;38631;47.572;10.704;2024-02-04T05:55:04;9.40;;;2.35;;
52734;SDS011;38631;47.572;10.704;2024-02-04T05:57:30;11.73;;;2.15;;
52734;SDS011;38631;47.572;10.704;2024-02-04T05:59:55;13.63;;;2.33;;
52734;SDS011;38631;47.572;10.704;2024-02-04T06:02:20;15.13;;;3.28;;
52734;SDS011;38631;47.572;10.704;2024-02-04T06:04:46;13.50;;;2.63;;
52734;SDS011;38631;47.572;10.704;2024-02-04T06:07:13;10.52;;;3.35;;
52734;SDS011;38631;47.572;10.704;2024-02-04T06:09:38;9.05;;;2.70;;
52734;SDS011;38631;47.572;10.704;2024-02-04T06:12:04;9.35;;;3.10;;
52734;SDS011;38631;47.572;10.704;2024-02-04T06:14:32;13.68;;;3.35;;
52734;SDS011;38631;47.572;10.704;2024-02-04T06:16:58;7.97;;;2.05;;
52734;SDS011;38631;47.572;10.704;2024-02-04T06:19:24;13.40;;;3.40;;
52734;SDS011;38631;47.572;10.704;2024-02-04T06:21:49;16.20;;;2.90;;
52734;SDS011;38631;47.572;10.704;2024-02-04T06:24:14;14.73;;;3.58;;
52734;SDS011;38631;47.572;10.704;2024-02-04T06:26:40;11.82;;;2.80;;
52734;SDS011;38631;47.572;10.704;2024-02-04T06:29:06;14.52;;;5.28;;
52734;SDS011;38631;47.572;10.704;2024-02-04T06:31:31;12.25;;;3.60;;
52734;SDS011;38631;47.572;10.704;2024-02-04T06:33:56;13.70;;;3.40;;
52734;SDS011;38631;47.572;10.704;2024-02-04T06:36:22;7.93;;;2.97;;
52734;SDS011;38631;47.572;10.704;2024-02-04T06:38:47;13.55;;;4.45;;
52734;SDS011;38631;47.572;10.704;2024-02-04T06:41:13;17.27;;;4.78;;
52734;SDS011;38631;47.572;10.704;2024-02-04T06:43:38;9.88;;;3.08;;
52734;SDS011;38631;47.572;10.704;2024-02-04T06:46:04;10.77;;;2.50;;
52734;SDS011;38631;47.572;10.704;2024-02-04T06:48:29;14.10;;;2.75;;
52734;SDS011;38631;47.572;10.704;2024-02-04T06:50:55;13.90;;;2.75;;
52734;SDS011;38631;47.572;10.704;2024-02-04T06:53:20;12.32;;;3.13;;
52734;SDS011;38631;47.572;10.704;2024-02-04T06:55:46;8.45;;;2.65;;
52734;SDS011;38631;47.572;10.704;2024-02-04T06:58:11;12.85;;;3.10;;
52734;SDS011;38631;47.572;10.704;2024-02-04T07:00:36;14.35;;;3.13;;
52734;SDS011;38631;47.572;10.704;2024-02-04T07:03:02;12.65;;;3.20;;
52734;SDS011;38631;47.572;10.704;2024-02-04T07:05:27;14.18;;;2.95;;
52734;SDS011;38631;47.572;10.704;2024-02-04T07:07:53;11.10;;;3.33;;
52734;SDS011;38631;47.572;10.704;2024-02-04T07:10:18;16.08;;;2.97;;
52734;SDS011;38631;47.572;10.704;2024-02-04T07:12:44;14.07;;;2.97;;
52734;SDS011;38631;47.572;10.704;2024-02-04T07:15:09;15.95;;;4.15;;
52734;SDS011;38631;47.572;10.704;2024-02-04T07:17:35;10.73;;;3.00;;
52734;SDS011;38631;47.572;10.704;2024-02-04T07:20:03;11.40;;;4.07;;
52734;SDS011;38631;47.572;10.704;2024-02-04T07:22:30;12.63;;;3.83;;
52734;SDS011;38631;47.572;10.704;2024-02-04T07:24:55;12.63;;;2.90;;
52734;SDS011;38631;47.572;10.704;2024-02-04T07:27:20;18.38;;;4.18;;
52734;SDS011;38631;47.572;10.704;2024-02-04T07:29:46;13.48;;;4.30;;
52734;SDS011;38631;47.572;10.704;2024-02-04T07:32:15;23.60;;;5.55;;
52734;SDS011;38631;47.572;10.704;2024-02-04T07:34:40;14.85;;;4.32;;
52734;SDS011;38631;47.572;10.704;2024-02-04T07:37:06;14.68;;;4.10;;
52734;SDS011;38631;47.572;10.704;2024-02-04T07:39:31;16.70;;;4.20;;
52734;SDS011;38631;47.572;10.704;2024-02-04T07:41:57;21.95;;;5.15;;
52734;SDS011;38631;47.572;10.704;2024-02-04T07:44:25;19.30;;;6.97;;
52734;SDS011;38631;47.572;10.704;2024-02-04T07:46:51;22.83;;;7.82;;
52734;SDS011;38631;47.572;10.704;2024-02-04T07:49:17;24.05;;;8.27;;
52734;SDS011;38631;47.572;10.704;2024-02-04T07:51:42;36.28;;;12.65;;
52734;SDS011;38631;47.572;10.704;2024-02-04T07:54:07;32.47;;;12.70;;
52734;SDS011;38631;47.572;10.704;2024-02-04T07:56:33;38.88;;;12.88;;
52734;SDS011;38631;47.572;10.704;2024-02-04T07:58:58;26.48;;;9.55;;
52734;SDS011;38631;47.572;10.704;2024-02-04T08:01:24;22.77;;;6.38;;
52734;SDS011;38631;47.572;10.704;2024-02-04T08:03:49;23.70;;;6.88;;
52734;SDS011;38631;47.572;10.704;2024-02-04T08:06:14;18.15;;;5.97;;
52734;SDS011;38631;47.572;10.704;2024-02-04T08:08:40;18.35;;;5.28;;
52734;SDS011;38631;47.572;10.704;2024-02-04T08:11:07;20.33;;;6.68;;
52734;SDS011;38631;47.572;10.704;2024-02-04T08:13:32;18.98;;;5.57;;
52734;SDS011;38631;47.572;10.704;2024-02-04T08:15:58;18.05;;;5.25;;
52734;SDS011;38631;47.572;10.704;2024-02-04T08:18:24;20.17;;;6.05;;
52734;SDS011;38631;47.572;10.704;2024-02-04T08:20:49;18.73;;;6.15;;
52734;SDS011;38631;47.572;10.704;2024-02-04T08:23:14;22.23;;;6.45;;
52734;SDS011;38631;47.572;10.704;2024-02-04T08:25:40;19.23;;;5.88;;
52734;SDS011;38631;47.572;10.704;2024-02-04T08:28:05;22.25;;;8.00;;
52734;SDS011;38631;47.572;10.704;2024-02-04T08:30:31;29.30;;;9.32;;
52734;SDS011;38631;47.572;10.704;2024-02-04T08:32:56;26.80;;;8.30;;
52734;SDS011;38631;47.572;10.704;2024-02-04T08:35:22;20.50;;;5.65;;
52734;SDS011;38631;47.572;10.704;2024-02-04T08:37:47;19.23;;;6.65;;
52734;SDS011;38631;47.572;10.704;2024-02-04T08:40:12;27.10;;;6.90;;
52734;SDS011;38631;47.572;10.704;2024-02-04T08:42:38;25.80;;;5.88;;
52734;SDS011;38631;47.572;10.704;2024-02-04T08:45:04;15.80;;;4.85;;
52734;SDS011;38631;47.572;10.704;2024-02-04T08:47:29;15.82;;;4.15;;
52734;SDS011;38631;47.572;10.704;2024-02-04T08:49:55;13.57;;;3.58;;
52734;SDS011;38631;47.572;10.704;2024-02-04T08:52:21;18.40;;;5.38;;
52734;SDS011;38631;47.572;10.704;2024-02-04T08:54:47;18.75;;;5.03;;
52734;SDS011;38631;47.572;10.704;2024-02-04T08:57:12;25.17;;;5.00;;
52734;SDS011;38631;47.572;10.704;2024-02-04T08:59:38;12.27;;;3.40;;
52734;SDS011;38631;47.572;10.704;2024-02-04T09:02:03;16.13;;;4.38;;
52734;SDS011;38631;47.572;10.704;2024-02-04T09:04:28;13.27;;;4.18;;
52734;SDS011;38631;47.572;10.704;2024-02-04T09:06:54;9.98;;;4.20;;
52734;SDS011;38631;47.572;10.704;2024-02-04T09:09:19;11.70;;;4.50;;
52734;SDS011;38631;47.572;10.704;2024-02-04T09:11:45;13.93;;;4.18;;
52734;SDS011;38631;47.572;10.704;2024-02-04T09:14:10;9.82;;;3.72;;
52734;SDS011;38631;47.572;10.704;2024-02-04T09:16:38;13.63;;;3.55;;
52734;SDS011;38631;47.572;10.704;2024-02-04T09:19:04;9.13;;;3.38;;
52734;SDS011;38631;47.572;10.704;2024-02-04T09:21:29;10.07;;;2.90;;
52734;SDS011;38631;47.572;10.704;2024-02-04T09:23:55;9.82;;;2.03;;
52734;SDS011;38631;47.572;10.704;2024-02-04T09:26:22;8.18;;;2.53;;
52734;SDS011;38631;47.572;10.704;2024-02-04T09:28:47;13.23;;;2.53;;
52734;SDS011;38631;47.572;10.704;2024-02-04T09:31:13;9.45;;;2.75;;
52734;SDS011;38631;47.572;10.704;2024-02-04T09:33:38;11.65;;;2.97;;
52734;SDS011;38631;47.572;10.704;2024-02-04T09:36:05;5.88;;;2.17;;
52734;SDS011;38631;47.572;10.704;2024-02-04T09:38:31;6.95;;;2.28;;
52734;SDS011;38631;47.572;10.704;2024-02-04T09:40:56;9.50;;;2.55;;
52734;SDS011;38631;47.572;10.704;2024-02-04T09:43:22;9.77;;;2.58;;
52734;SDS011;38631;47.572;10.704;2024-02-04T09:45:48;10.15;;;2.50;;
52734;SDS011;38631;47.572;10.704;2024-02-04T09:48:14;7.57;;;2.38;;
52734;SDS011;38631;47.572;10.704;2024-02-04T09:50:43;11.40;;;3.20;;
52734;SDS011;38631;47.572;10.704;2024-02-04T09:53:09;8.95;;;3.80;;
52734;SDS011;38631;47.572;10.704;2024-02-04T09:55:38;13.00;;;3.70;;
52734;SDS011;38631;47.572;10.704;2024-02-04T09:58:05;9.70;;;2.50;;
52734;SDS011;38631;47.572;10.704;2024-02-04T10:00:30;6.47;;;1.67;;
52734;SDS011;38631;47.572;10.704;2024-02-04T10:02:58;6.55;;;1.75;;
52734;SDS011;38631;47.572;10.704;2024-02-04T10:05:24;4.85;;;0.90;;
52734;SDS011;38631;47.572;10.704;2024-02-04T10:07:50;3.95;;;1.13;;
52734;SDS011;38631;47.572;10.704;2024-02-04T10:10:15;3.08;;;0.70;;
52734;SDS011;38631;47.572;10.704;2024-02-04T10:12:41;2.00;;;0.35;;
52734;SDS011;38631;47.572;10.704;2024-02-04T10:15:08;1.30;;;0.40;;
52734;SDS011;38631;47.572;10.704;2024-02-04T10:17:34;1.92;;;0.50;;
52734;SDS011;38631;47.572;10.704;2024-02-04T10:20:00;2.22;;;0.60;;
52734;SDS011;38631;47.572;10.704;2024-02-04T10:22:26;3.05;;;0.70;;
52734;SDS011;38631;47.572;10.704;2024-02-04T10:24:52;4.28;;;0.60;;
52734;SDS011;38631;47.572;10.704;2024-02-04T10:27:17;1.75;;;0.70;;
52734;SDS011;38631;47.572;10.704;2024-02-04T10:29:44;1.52;;;0.60;;
52734;SDS011;38631;47.572;10.704;2024-02-04T10:32:10;5.60;;;2.08;;
52734;SDS011;38631;47.572;10.704;2024-02-04T10:34:38;2.65;;;0.68;;
52734;SDS011;38631;47.572;10.704;2024-02-04T10:37:04;2.92;;;0.82;;
52734;SDS011;38631;47.572;10.704;2024-02-04T10:39:30;0.75;;;0.28;;
52734;SDS011;38631;47.572;10.704;2024-02-04T10:41:55;3.17;;;0.57;;
52734;SDS011;38631;47.572;10.704;2024-02-04T10:44:26;2.25;;;0.63;;
52734;SDS011;38631;47.572;10.704;2024-02-04T10:46:57;5.50;;;1.38;;
52734;SDS011;38631;47.572;10.704;2024-02-04T10:49:26;2.47;;;0.47;;
52734;SDS011;38631;47.572;10.704;2024-02-04T10:51:51;1.52;;;0.57;;
52734;SDS011;38631;47.572;10.704;2024-02-04T10:54:21;2.30;;;0.70;;
52734;SDS011;38631;47.572;10.704;2024-02-04T10:56:51;2.53;;;0.70;;
52734;SDS011;38631;47.572;10.704;2024-02-04T10:59:21;2.65;;;0.60;;
52734;SDS011;38631;47.572;10.704;2024-02-04T11:01:47;2.00;;;0.82;;
52734;SDS011;38631;47.572;10.704;2024-02-04T11:04:16;4.18;;;0.82;;
52734;SDS011;38631;47.572;10.704;2024-02-04T11:06:43;4.85;;;1.83;;
52734;SDS011;38631;47.572;10.704;2024-02-04T11:09:09;3.25;;;0.73;;
52734;SDS011;38631;47.572;10.704;2024-02-04T11:11:36;2.33;;;0.75;;
52734;SDS011;38631;47.572;10.704;2024-02-04T11:14:04;3.72;;;0.60;;
52734;SDS011;38631;47.572;10.704;2024-02-04T11:27:31;5.93;;;1.38;;
52734;SDS011;38631;47.572;10.704;2024-02-04T11:29:57;4.38;;;1.00;;
52734;SDS011;38631;47.572;10.704;2024-02-04T11:32:24;5.25;;;0.77;;
52734;SDS011;38631;47.572;10.704;2024-02-04T11:34:50;4.20;;;0.50;;
52734;SDS011;38631;47.572;10.704;2024-02-04T11:37:17;1.73;;;0.70;;
52734;SDS011;38631;47.572;10.704;2024-02-04T11:39:53;2.15;;;0.88;;
52734;SDS011;38631;47.572;10.704;2024-02-04T11:43:03;4.53;;;0.57;;
52734;SDS011;38631;47.572;10.704;2024-02-04T11:45:29;5.18;;;0.80;;
52734;SDS011;38631;47.572;10.704;2024-02-04T11:48:01;5.03;;;0.93;;
52734;SDS011;38631;47.572;10.704;2024-02-04T11:50:27;5.63;;;1.00;;
52734;SDS011;38631;47.572;10.704;2024-02-04T11:53:08;2.88;;;0.50;;
52734;SDS011;38631;47.572;10.704;2024-02-04T11:55:34;1.80;;;0.77;;
52734;SDS011;38631;47.572;10.704;2024-02-04T11:58:01;4.38;;;1.02;;
52734;SDS011;38631;47.572;10.704;2024-02-04T12:00:27;3.28;;;0.55;;
52734;SDS011;38631;47.572;10.704;2024-02-04T12:03:02;2.53;;;0.40;;
52734;SDS011;38631;47.572;10.704;2024-02-04T12:05:29;2.70;;;0.60;;
52734;SDS011;38631;47.572;10.704;2024-02-04T12:07:57;3.53;;;0.63;;
52734;SDS011;38631;47.572;10.704;2024-02-04T12:10:24;2.83;;;0.55;;
52734;SDS011;38631;47.572;10.704;2024-02-04T12:12:52;4.18;;;0.90;;
52734;SDS011;38631;47.572;10.704;2024-02-04T12:15:17;12.80;;;1.25;;
52734;SDS011;38631;47.572;10.704;2024-02-04T12:17:43;2.13;;;0.75;;
52734;SDS011;38631;47.572;10.704;2024-02-04T12:20:09;2.78;;;0.60;;
52734;SDS011;38631;47.572;10.704;2024-02-04T12:22:35;1.35;;;0.45;;
52734;SDS011;38631;47.572;10.704;2024-02-04T12:25:02;2.40;;;0.40;;
52734;SDS011;38631;47.572;10.704;2024-02-04T12:27:28;2.85;;;0.70;;
52734;SDS011;38631;47.572;10.704;2024-02-04T12:29:53;3.10;;;0.55;;
52734;SDS011;38631;47.572;10.704;2024-02-04T12:32:19;3.22;;;0.75;;
52734;SDS011;38631;47.572;10.704;2024-02-04T12:34:47;3.85;;;1.10;;
52734;SDS011;38631;47.572;10.704;2024-02-04T12:37:13;3.17;;;0.57;;
52734;SDS011;38631;47.572;10.704;2024-02-04T12:39:39;4.20;;;0.93;;
52734;SDS011;38631;47.572;10.704;2024-02-04T12:42:04;1.30;;;0.40;;
52734;SDS011;38631;47.572;10.704;2024-02-04T12:44:30;2.38;;;0.90;;
52734;SDS011;38631;47.572;10.704;2024-02-04T12:46:56;4.22;;;0.70;;
52734;SDS011;38631;47.572;10.704;2024-02-04T12:49:21;7.63;;;0.65;;
52734;SDS011;38631;47.572;10.704;2024-02-04T12:51:47;3.88;;;0.80;;
52734;SDS011;38631;47.572;10.704;2024-02-04T12:54:13;2.17;;;0.73;;
52734;SDS011;38631;47.572;10.704;2024-02-04T12:56:42;3.00;;;0.90;;
52734;SDS011;38631;47.572;10.704;2024-02-04T12:59:09;3.90;;;0.90;;
52734;SDS011;38631;47.572;10.704;2024-02-04T13:01:35;4.75;;;0.60;;
52734;SDS011;38631;47.572;10.704;2024-02-04T13:04:02;3.65;;;0.65;;
52734;SDS011;38631;47.572;10.704;2024-02-04T13:06:28;2.97;;;0.70;;
52734;SDS011;38631;47.572;10.704;2024-02-04T13:08:56;2.28;;;0.50;;
52734;SDS011;38631;47.572;10.704;2024-02-04T13:11:23;1.95;;;0.52;;
52734;SDS011;38631;47.572;10.704;2024-02-04T13:13:49;4.80;;;0.93;;
52734;SDS011;38631;47.572;10.704;2024-02-04T13:16:14;3.65;;;0.93;;
52734;SDS011;38631;47.572;10.704;2024-02-04T13:18:40;5.25;;;0.55;;
52734;SDS011;38631;47.572;10.704;2024-02-04T13:21:05;1.83;;;0.85;;
52734;SDS011;38631;47.572;10.704;2024-02-04T13:23:30;1.13;;;0.30;;
52734;SDS011;38631;47.572;10.704;2024-02-04T13:25:56;2.50;;;0.88;;
52734;SDS011;38631;47.572;10.704;2024-02-04T13:28:21;2.47;;;0.52;;
52734;SDS011;38631;47.572;10.704;2024-02-04T13:30:52;2.10;;;0.85;;
52734;SDS011;38631;47.572;10.704;2024-02-04T13:33:18;2.83;;;0.65;;
52734;SDS011;38631;47.572;10.704;2024-02-04T13:35:43;4.28;;;0.77;;
52734;SDS011;38631;47.572;10.704;2024-02-04T13:38:10;3.13;;;0.63;;
52734;SDS011;38631;47.572;10.704;2024-02-04T13:40:35;2.53;;;0.98;;
52734;SDS011;38631;47.572;10.704;2024-02-04T13:43:02;3.38;;;0.57;;
52734;SDS011;38631;47.572;10.704;2024-02-04T13:45:27;2.33;;;0.50;;
52734;SDS011;38631;47.572;10.704;2024-02-04T13:47:53;4.55;;;0.95;;
52734;SDS011;38631;47.572;10.704;2024-02-04T13:50:18;4.30;;;1.25;;
52734;SDS011;38631;47.572;10.704;2024-02-04T13:52:43;4.65;;;0.90;;
52734;SDS011;38631;47.572;10.704;2024-02-04T13:55:09;2.00;;;0.47;;
52734;SDS011;38631;47.572;10.704;2024-02-04T13:57:34;6.18;;;0.88;;
52734;SDS011;38631;47.572;10.704;2024-02-04T14:00:00;3.60;;;0.75;;
52734;SDS011;38631;47.572;10.704;2024-02-04T14:02:28;2.92;;;1.00;;
52734;SDS011;38631;47.572;10.704;2024-02-04T14:04:55;1.25;;;0.40;;
52734;SDS011;38631;47.572;10.704;2024-02-04T14:07:21;1.42;;;0.60;;
52734;SDS011;38631;47.572;10.704;2024-02-04T14:09:46;4.40;;;1.00;;
52734;SDS011;38631;47.572;10.704;2024-02-04T14:12:12;4.10;;;0.70;;
52734;SDS011;38631;47.572;10.704;2024-02-04T14:14:39;2.22;;;0.82;;
52734;SDS011;38631;47.572;10.704;2024-02-04T14:17:04;9.82;;;1.00;;
52734;SDS011;38631;47.572;10.704;2024-02-04T14:19:30;2.97;;;2.10;;
52734;SDS011;38631;47.572;10.704;2024-02-04T14:21:55;7.28;;;2.80;;
52734;SDS011;38631;47.572;10.704;2024-02-04T14:24:21;4.80;;;2.20;;
52734;SDS011;38631;47.572;10.704;2024-02-04T14:26:46;5.68;;;2.15;;
52734;SDS011;38631;47.572;10.704;2024-02-04T14:29:12;5.60;;;1.40;;
52734;SDS011;38631;47.572;10.704;2024-02-04T14:31:38;7.00;;;2.38;;
52734;SDS011;38631;47.572;10.704;2024-02-04T14:34:03;8.88;;;4.38;;
52734;SDS011;38631;47.572;10.704;2024-02-04T14:36:29;5.65;;;2.28;;
52734;SDS011;38631;47.572;10.704;2024-02-04T14:38:55;5.72;;;2.90;;
52734;SDS011;38631;47.572;10.704;2024-02-04T14:41:22;6.07;;;2.08;;